createdAt,value
2018-09-10T05:01:14.088Z,98134.37
2018-09-10T05:03:44.254Z,98130.45
2018-09-10T05:06:13.981Z,98131.59
2018-09-10T05:08:44.362Z,98139.19
2018-09-10T05:11:15.590Z,98137.97
2018-09-10T05:13:46.208Z,98135.64
2018-09-10T05:16:16.117Z,98133.69
2018-09-10T05:18:46.169Z,98140.08
2018-09-10T05:21:16.064Z,98135.97
2018-09-10T05:23:46.071Z,98145.24
2018-09-10T05:26:15.819Z,98148.25
2018-09-10T05:28:45.980Z,98142.36
2018-09-10T05:31:15.952Z,98145.59
2018-09-10T05:33:45.877Z,98148.03
2018-09-10T05:36:15.724Z,98153.09
2018-09-10T05:38:45.870Z,98156.16
2018-09-10T05:41:15.711Z,98145.35
2018-09-10T05:43:45.772Z,98148.09
2018-09-10T05:46:15.678Z,98145.66
2018-09-10T05:48:45.899Z,98148.56
2018-09-10T05:51:16.015Z,98146.80
2018-09-10T05:53:46.121Z,98147.03
2018-09-10T05:56:16.212Z,98143.92
2018-09-10T05:58:46.298Z,98145.29
2018-09-10T06:01:16.171Z,98141.27
2018-09-10T06:03:46.364Z,98140.72
2018-09-10T06:06:16.261Z,98140.12
2018-09-10T06:08:46.286Z,98139.78
2018-09-10T06:11:16.322Z,98146.33
2018-09-10T06:13:46.395Z,98143.10
2018-09-10T06:16:16.259Z,98142.58
2018-09-10T06:18:46.498Z,98140.44
2018-09-10T06:21:16.584Z,98139.55
2018-09-10T06:23:46.449Z,98133.39
2018-09-10T06:26:16.531Z,98140.20
2018-09-10T06:28:46.551Z,98138.81
2018-09-10T06:31:16.488Z,98137.62
2018-09-10T06:33:46.365Z,98133.56
2018-09-10T06:36:16.125Z,98138.41
2018-09-10T06:38:45.998Z,98142.63
2018-09-10T06:41:15.667Z,98146.94
2018-09-10T06:43:45.460Z,98148.02
2018-09-10T06:46:15.152Z,98144.78
2018-09-10T06:48:44.905Z,98147.77
2018-09-10T06:51:14.984Z,98143.22
2018-09-10T06:53:45.135Z,98147.88
2018-09-10T06:56:15.032Z,98154.09
2018-09-10T06:58:45.344Z,98152.64
2018-09-10T07:01:15.464Z,98155.02
2018-09-10T07:03:46.123Z,98158.20
2018-09-10T07:06:16.182Z,98163.14
2018-09-10T07:08:46.187Z,98162.29
2018-09-10T07:11:16.266Z,98168.56
2018-09-10T07:13:46.382Z,98160.17
2018-09-10T07:16:16.328Z,98163.70
2018-09-10T07:18:46.349Z,98164.05
2018-09-10T07:21:16.034Z,98161.70
2018-09-10T07:23:46.080Z,98156.20
2018-09-10T07:26:15.932Z,98159.41
2018-09-10T07:28:46.542Z,98154.76
2018-09-10T07:31:16.588Z,98158.95
2018-09-10T07:33:46.483Z,98153.02
2018-09-10T07:36:16.600Z,98151.06
2018-09-10T07:38:46.576Z,98154.39
2018-09-10T07:41:16.284Z,98157.70
2018-09-10T07:43:46.331Z,98156.13
2018-09-10T07:46:16.128Z,98154.97
2018-09-10T07:48:46.117Z,98156.19
2018-09-10T07:51:16.111Z,98161.20
2018-09-10T07:53:46.057Z,98163.50
2018-09-10T07:56:15.761Z,98161.89
2018-09-10T07:58:45.635Z,98157.20
2018-09-10T08:01:15.461Z,98164.69
2018-09-10T08:03:45.438Z,98159.20
2018-09-10T08:06:15.229Z,98155.34
2018-09-10T08:08:45.477Z,98159.91
2018-09-10T08:11:16.109Z,98154.84
2018-09-10T08:13:46.157Z,98158.69
2018-09-10T08:16:16.108Z,98157.70
2018-09-10T08:18:46.295Z,98153.34
2018-09-10T08:21:16.247Z,98148.69
2018-09-10T08:23:46.175Z,98153.34
2018-09-10T08:26:16.123Z,98146.03
2018-09-10T08:28:46.182Z,98147.03
2018-09-10T08:31:15.948Z,98139.36
2018-09-10T08:33:46.076Z,98140.22
2018-09-10T08:36:15.820Z,98143.53
2018-09-10T08:38:45.577Z,98143.52
2018-09-10T08:41:15.619Z,98139.54
2018-09-10T08:43:45.481Z,98144.04
2018-09-10T08:46:16.341Z,98142.34
2018-09-10T08:48:47.209Z,98139.17
2018-09-10T08:51:16.939Z,98140.55
2018-09-10T08:53:46.736Z,98138.47
2018-09-10T08:56:16.735Z,98136.11
2018-09-10T08:58:46.504Z,98135.45
2018-09-10T09:01:16.250Z,98140.66
2018-09-10T09:03:46.302Z,98132.16
2018-09-10T09:06:16.145Z,98132.84
2018-09-10T09:08:45.977Z,98129.36
2018-09-10T09:11:15.948Z,98131.33
2018-09-10T09:13:46.013Z,98127.20
2018-09-10T09:16:15.912Z,98141.49
2018-09-10T09:18:45.908Z,98137.84
2018-09-10T09:21:16.040Z,98144.88
2018-09-10T09:23:45.817Z,98143.60
2018-09-10T09:26:15.717Z,98140.73
2018-09-10T09:28:45.720Z,98132.59
2018-09-10T09:31:15.598Z,98134.42
2018-09-10T09:33:45.559Z,98132.87
2018-09-10T09:36:20.242Z,98136.44
2018-09-10T09:38:54.990Z,98145.53
2018-09-10T09:41:29.785Z,98139.63
2018-09-10T09:44:04.674Z,98139.48
2018-09-10T09:46:34.486Z,98135.78
2018-09-10T09:49:04.424Z,98138.61
2018-09-10T09:51:34.177Z,98145.05
2018-09-10T09:54:04.242Z,98146.02
2018-09-10T09:56:34.124Z,98135.05
2018-09-10T09:59:04.474Z,98135.97
2018-09-10T10:01:39.024Z,98135.21
2018-09-10T10:04:12.021Z,98129.98
2018-09-10T10:06:41.792Z,98131.08
2018-09-10T10:09:13.220Z,98124.56
2018-09-10T10:11:43.126Z,98118.64
2018-09-10T10:14:13.563Z,98115.01
2018-09-10T10:16:44.347Z,98118.64
2018-09-10T10:19:14.781Z,98114.73
2018-09-10T10:21:44.654Z,98106.94
2018-09-10T10:24:14.643Z,98103.27
2018-09-10T10:26:44.759Z,98097.89
2018-09-10T10:29:14.768Z,98098.72
2018-09-10T10:31:44.802Z,98094.12
2018-09-10T10:34:15.075Z,98097.83
2018-09-10T10:36:44.823Z,98100.77
2018-09-10T10:39:15.065Z,98091.24
2018-09-10T10:41:45.070Z,98095.20
2018-09-10T10:44:14.920Z,98095.77
2018-09-10T10:46:44.931Z,98086.91
2018-09-10T10:49:14.881Z,98087.24
2018-09-10T10:51:44.751Z,98089.94
2018-09-10T10:54:14.965Z,98091.91
2018-09-10T10:56:45.070Z,98087.26
2018-09-10T10:59:15.031Z,98085.23
2018-09-10T11:01:45.206Z,98072.63
2018-09-10T11:04:15.216Z,98073.19
2018-09-10T11:06:45.216Z,98068.48
2018-09-10T11:09:15.171Z,98066.80
2018-09-10T11:11:45.168Z,98058.56
2018-09-10T11:14:15.189Z,98056.05
2018-09-10T11:16:45.104Z,98057.92
2018-09-10T11:19:15.312Z,98057.88
2018-09-10T11:21:45.074Z,98053.27
2018-09-10T11:24:14.831Z,98053.72
2018-09-10T11:26:44.787Z,98059.19
2018-09-10T11:29:14.678Z,98056.41
2018-09-10T11:31:44.423Z,98055.09
2018-09-10T11:34:14.509Z,98051.13
2018-09-10T11:36:44.280Z,98044.66
2018-09-10T11:39:14.200Z,98038.47
2018-09-10T11:41:44.215Z,98039.29
2018-09-10T11:44:14.120Z,98034.88
2018-09-10T11:52:39.622Z,98033.15
2018-09-10T11:55:09.634Z,98032.30
2018-09-10T11:57:39.859Z,98030.23
2018-09-10T12:00:10.648Z,98040.75
2018-09-10T12:02:40.741Z,98040.08
2018-09-10T12:05:10.587Z,98032.97
2018-09-10T12:07:40.332Z,98027.68
2018-09-10T12:10:10.450Z,98024.53
2018-09-10T12:12:40.434Z,98025.40
2018-09-10T12:15:10.263Z,98024.19
2018-09-10T12:17:59.580Z,98025.02
2018-09-10T12:20:29.745Z,98019.30
2018-09-10T12:22:59.658Z,98022.81
2018-09-10T12:25:31.132Z,98022.30
2018-09-10T12:28:01.166Z,98019.09
2018-09-10T12:30:31.549Z,98023.35
2018-09-10T12:33:05.193Z,98023.19
2018-09-10T12:35:36.742Z,98023.16
2018-09-10T12:38:07.135Z,98020.20
2018-09-10T12:40:37.242Z,98015.84
2018-09-10T12:43:07.028Z,98019.78
2018-09-10T12:45:37.748Z,98020.63
2018-09-10T12:48:07.664Z,98013.98
2018-09-10T12:50:37.967Z,98017.86
2018-09-10T12:53:07.934Z,98008.24
2018-09-10T12:55:38.115Z,98011.97
2018-09-10T12:58:08.147Z,98010.33
2018-09-10T13:00:38.313Z,97999.39
2018-09-10T13:03:08.628Z,97998.64
2018-09-10T13:05:38.558Z,97996.36
2018-09-10T13:08:08.636Z,97997.09
2018-09-10T13:10:38.760Z,97997.77
2018-09-10T13:13:08.687Z,97993.38
2018-09-10T13:15:38.685Z,97995.41
2018-09-10T13:18:08.845Z,97994.52
2018-09-10T13:20:38.922Z,97992.06
2018-09-10T13:23:08.811Z,97990.99
2018-09-10T13:25:39.954Z,97987.91
2018-09-10T13:28:09.762Z,97981.27
2018-09-10T13:30:39.684Z,97981.67
2018-09-10T13:36:02.755Z,97972.77
2018-09-10T13:38:49.912Z,97971.73
2018-09-10T13:41:20.591Z,97975.36
2018-09-10T13:43:52.530Z,97981.16
2018-09-10T13:46:25.283Z,97972.99
2018-09-10T13:48:56.477Z,97974.94
2018-09-10T13:51:26.927Z,97976.62
2018-09-10T13:53:57.425Z,97979.92
2018-09-10T13:56:28.383Z,97970.89
2018-09-10T13:58:58.504Z,97974.13
2018-09-10T14:01:29.081Z,97979.13
2018-09-10T14:03:59.210Z,97969.49
2018-09-10T14:06:33.051Z,97973.12
2018-09-10T14:09:03.195Z,97973.19
2018-09-10T14:11:33.682Z,97978.17
2018-09-10T14:14:04.059Z,97976.33
2018-09-10T14:16:36.433Z,97979.73
2018-09-10T14:19:06.455Z,97975.13
2018-09-10T14:21:36.711Z,97966.21
2018-09-10T14:24:06.809Z,97972.27
2018-09-10T14:26:42.724Z,97974.37
2018-09-10T14:29:13.354Z,97970.99
2018-09-10T14:31:43.485Z,97960.95
2018-09-10T14:34:14.133Z,97965.11
2018-09-10T14:36:44.486Z,97959.42
2018-09-10T14:39:15.092Z,97963.53
2018-09-10T14:41:45.073Z,97962.81
2018-09-10T14:44:23.308Z,97966.67
2018-09-10T14:46:53.538Z,97966.67
2018-09-10T14:49:26.791Z,97970.41
2018-09-10T14:51:59.792Z,97972.11
2018-09-10T14:54:50.998Z,97968.92
2018-09-10T14:57:21.159Z,97966.99
2018-09-10T14:59:51.355Z,97973.97
2018-09-10T15:02:30.163Z,97972.56
2018-09-10T15:05:03.474Z,97968.13
2018-09-10T15:07:33.753Z,97965.98
2018-09-10T15:10:05.275Z,97968.98
2018-09-10T15:12:41.053Z,97968.33
2018-09-10T15:15:17.704Z,97960.77
2018-09-10T15:17:48.339Z,97962.86
2018-09-10T15:20:23.714Z,97958.84
2018-09-10T15:22:54.894Z,97961.70
2018-09-10T15:25:26.800Z,97956.94
2018-09-10T15:27:58.185Z,97952.05
2018-09-10T15:30:34.556Z,97949.91
2018-09-10T15:33:06.035Z,97951.91
2018-09-10T15:35:36.295Z,97952.78
2018-09-10T15:38:08.695Z,97947.59
2018-09-10T15:40:49.889Z,97951.28
2018-09-10T15:46:39.638Z,97952.05
2018-09-10T15:49:10.606Z,97944.41
2018-09-10T15:51:45.856Z,97945.41
2018-09-10T15:54:16.115Z,97939.60
2018-09-10T15:56:46.835Z,97940.88
2018-09-10T15:59:18.256Z,97936.15
2018-09-10T16:01:49.496Z,97953.30
2018-09-10T16:04:19.677Z,97952.80
2018-09-10T16:06:50.040Z,97953.66
2018-09-10T16:09:20.096Z,97958.80
2018-09-10T16:11:50.636Z,97966.30
2018-09-10T16:14:20.904Z,97965.53
2018-09-10T16:16:52.305Z,97964.59
2018-09-10T16:19:22.685Z,97961.59
2018-09-10T16:21:53.337Z,97962.58
2018-09-10T16:24:23.493Z,97963.36
2018-09-10T16:26:54.497Z,97960.88
2018-09-10T16:29:24.798Z,97965.05
2018-09-10T16:31:55.005Z,97963.38
2018-09-10T16:34:25.777Z,97968.87
2018-09-10T16:36:56.496Z,97970.03
2018-09-10T16:39:31.777Z,97968.28
2018-09-10T16:42:07.205Z,97972.05
2018-09-10T16:44:44.257Z,97971.53
2018-09-10T16:47:17.321Z,97967.02
2018-09-10T16:49:51.164Z,97968.28
2018-09-10T16:52:23.258Z,97972.63
2018-09-10T16:54:53.458Z,97976.93
2018-09-10T16:57:24.058Z,97979.00
2018-09-10T16:59:54.139Z,97982.53
2018-09-10T17:02:36.500Z,97988.85
2018-09-10T17:05:07.956Z,97993.24
2018-09-10T17:07:38.090Z,98000.25
2018-09-10T17:10:08.156Z,98008.67
2018-09-10T17:12:39.375Z,98007.95
2018-09-10T17:15:21.588Z,98011.34
2018-09-10T17:17:51.423Z,98009.07
2018-09-10T17:20:22.181Z,98012.73
2018-09-10T17:22:52.182Z,98016.41
2018-09-10T17:25:22.154Z,98014.53
2018-09-10T17:27:52.156Z,98018.34
2018-09-10T17:30:22.264Z,98023.55
2018-09-10T17:32:51.947Z,98033.31
2018-09-10T17:35:22.117Z,98040.08
2018-09-10T17:37:51.968Z,98047.52
2018-09-10T17:42:57.726Z,98059.73
2018-09-10T17:45:41.609Z,98058.35
2018-09-10T17:48:11.987Z,98062.70
2018-09-10T17:50:42.923Z,98059.42
2018-09-10T17:53:13.761Z,98073.42
2018-09-10T17:55:46.268Z,98071.09
2018-09-10T17:58:15.888Z,98082.28
2018-09-10T18:00:49.594Z,98083.84
2018-09-10T18:16:43.328Z,98077.11
2018-09-10T18:19:15.230Z,98114.55
2018-09-10T18:21:46.057Z,98112.52
2018-09-10T18:24:16.369Z,98108.20
2018-09-10T18:26:46.236Z,98115.28
2018-09-10T18:29:27.952Z,98117.34
2018-09-10T18:31:57.959Z,98130.73
2018-09-10T18:34:29.469Z,98127.64
2018-09-10T18:37:03.868Z,98134.34
2018-09-10T18:39:36.070Z,98132.92
2018-09-10T18:42:06.380Z,98140.84
2018-09-10T18:44:40.109Z,98142.02
2018-09-10T18:50:18.908Z,98150.28
2018-09-10T18:52:49.919Z,98149.59
2018-09-10T18:55:34.954Z,98153.06
2018-09-10T18:58:33.549Z,98149.75
2018-09-10T19:01:05.682Z,98149.48
2018-09-10T19:03:51.605Z,98146.96
2018-09-10T19:06:38.638Z,98150.69
2018-09-10T19:12:22.650Z,98159.20
2018-09-10T19:14:56.378Z,98167.30
2018-09-10T19:17:29.056Z,98164.73
2018-09-10T19:20:02.497Z,98170.48
2018-09-10T19:22:33.768Z,98170.23
2018-09-10T19:31:27.127Z,98174.28
2018-09-10T19:34:00.418Z,98189.63
2018-09-10T19:46:39.975Z,98186.20
2018-09-10T19:49:13.604Z,98187.52
2018-09-10T19:52:19.840Z,98187.82
2018-09-10T19:58:12.368Z,98198.53
2018-09-10T20:46:27.716Z,98250.23
2018-09-10T20:49:00.099Z,98256.17
2018-09-10T21:35:12.905Z,98260.99
2018-09-10T21:37:44.541Z,98263.17
